Sao Lourenco da Mata, Brazil
Current Conditions -  °F | °C
As of 12:00 AM on Friday 19 Dec 2014 (Local Time) from SBRF Reporting Station
Broken Clouds Broken Clouds  
Wind Chill: 81°   Ceiling: 6000
Heat Index: 85°   Visibility: 6mi
Dew Point: 73°   Wind: 3mph
Humidity: 79%   Direction: 60°ENE
Pressure: 29.88"   Gusts: NA
Location:  8°S, 35.02°W
Report Text: SBRF 190300Z 06003KT 9999 SCT020 BKN060 27/23 Q1012
Loading
Personal Weather Stations






























Interactive Weather Map New forecast layout! Learn more

10-Day Weather Forecast

Advertisements
Track Severe Weather on mobile